Time;durP1;ratioP1;P1;durP2;ratioP2;P2;SDS_P1;SDS_P2;PMS_P1;PMS_P2;Temp;Humidity;BMP_temperature;BMP_pressure;BME280_temperature;BME280_humidity;BME280_pressure;Samples;Min_cycle;Max_cycle;Signal;HPM_P1;HPM_P2
2020/12/07 00:00:23;;;;;;;12.80;11.70;;;;;;;;;;5067318;28;20216;-57
2020/12/07 00:02:48;;;;;;;13.13;11.93;;;;;;;;;;5068298;28;20196;-57
2020/12/07 00:05:13;;;;;;;12.83;11.73;;;;;;;;;;5063487;28;20181;-56
2020/12/07 00:07:39;;;;;;;13.10;11.80;;;;;;;;;;5069047;28;20171;-57
2020/12/07 00:10:04;;;;;;;12.87;11.77;;;;;;;;;;5069274;28;20194;-56
2020/12/07 00:12:30;;;;;;;14.17;12.77;;;;;;;;;;5063336;28;20180;-56
2020/12/07 00:14:55;;;;;;;13.03;11.83;;;;;;;;;;5067736;28;20185;-57
2020/12/07 00:17:24;;;;;;;13.07;11.60;;;;;;;;;;5069210;28;20191;-57
2020/12/07 00:19:50;;;;;;;14.33;12.93;;;;;;;;;;5069267;28;20191;-57
2020/12/07 00:22:21;;;;;;;13.27;12.07;;;;;;;;;;5068594;28;20707;-57
2020/12/07 00:24:47;;;;;;;12.87;11.67;;;;;;;;;;5066092;28;20196;-58
2020/12/07 00:27:12;;;;;;;13.73;12.33;;;;;;;;;;5068893;28;20607;-57
2020/12/07 00:29:37;;;;;;;13.55;12.35;;;;;;;;;;5069071;28;20544;-56
2020/12/07 00:32:02;;;;;;;12.60;11.50;;;;;;;;;;5069263;28;20181;-58
2020/12/07 00:34:27;;;;;;;13.80;12.57;;;;;;;;;;5067506;28;20246;-57
2020/12/07 00:36:52;;;;;;;13.35;12.15;;;;;;;;;;5061642;28;20193;-57
2020/12/07 00:39:17;;;;;;;13.38;12.07;;;;;;;;;;5069649;28;20180;-57
2020/12/07 00:41:43;;;;;;;14.13;12.63;;;;;;;;;;5068715;28;20610;-57
2020/12/07 00:44:08;;;;;;;14.07;12.70;;;;;;;;;;5069328;28;20182;-57
2020/12/07 00:46:34;;;;;;;14.50;12.95;;;;;;;;;;5065885;28;20179;-56
2020/12/07 00:48:59;;;;;;;13.50;12.10;;;;;;;;;;5069221;28;20176;-56
2020/12/07 00:51:24;;;;;;;12.77;11.47;;;;;;;;;;5068719;28;20587;-56
2020/12/07 00:53:49;;;;;;;13.55;12.10;;;;;;;;;;5068983;28;20306;-56
2020/12/07 00:56:14;;;;;;;13.55;12.25;;;;;;;;;;5062355;28;20525;-56
2020/12/07 00:58:39;;;;;;;12.65;11.40;;;;;;;;;;5063306;28;20189;-56
2020/12/07 01:01:05;;;;;;;13.57;12.38;;;;;;;;;;5068590;28;20252;-56
2020/12/07 01:03:30;;;;;;;14.23;12.73;;;;;;;;;;5068378;28;20546;-56
2020/12/07 01:05:55;;;;;;;13.43;12.25;;;;;;;;;;5066216;28;20163;-57
2020/12/07 01:08:21;;;;;;;14.07;12.88;;;;;;;;;;5068128;28;20173;-57
2020/12/07 01:10:46;;;;;;;15.63;13.17;;;;;;;;;;5071852;28;20199;-57
2020/12/07 01:13:12;;;;;;;12.93;11.63;;;;;;;;;;5073080;28;21147;-56
2020/12/07 01:15:37;;;;;;;13.57;12.27;;;;;;;;;;5070599;28;20216;-57
2020/12/07 01:18:02;;;;;;;13.95;12.10;;;;;;;;;;5071703;28;20226;-57
2020/12/07 01:20:27;;;;;;;14.02;12.60;;;;;;;;;;5072691;28;20164;-57
2020/12/07 01:22:52;;;;;;;12.77;11.57;;;;;;;;;;5071688;28;20684;-55
2020/12/07 01:25:17;;;;;;;13.45;12.25;;;;;;;;;;5070508;28;20172;-57
2020/12/07 01:27:43;;;;;;;14.33;13.00;;;;;;;;;;5069449;28;20208;-57
2020/12/07 01:30:08;;;;;;;12.97;11.87;;;;;;;;;;5072380;28;20225;-57
2020/12/07 01:32:33;;;;;;;13.00;11.80;;;;;;;;;;5071863;28;20224;-56
2020/12/07 01:34:58;;;;;;;14.40;13.05;;;;;;;;;;5070291;28;20276;-56
2020/12/07 01:37:23;;;;;;;13.43;12.13;;;;;;;;;;5070019;28;20385;-59
2020/12/07 01:39:48;;;;;;;13.38;11.98;;;;;;;;;;5069987;28;20696;-56
2020/12/07 01:42:13;;;;;;;14.15;12.85;;;;;;;;;;5072362;28;20232;-57
2020/12/07 01:44:39;;;;;;;12.87;11.67;;;;;;;;;;5072238;28;20172;-56
2020/12/07 01:47:16;;;;;;;13.23;11.90;;;;;;;;;;5068724;28;20184;-57
2020/12/07 01:49:41;;;;;;;13.47;12.27;;;;;;;;;;5066661;28;20181;-57
2020/12/07 01:52:07;;;;;;;12.65;11.45;;;;;;;;;;5071081;28;20599;-57
2020/12/07 01:54:32;;;;;;;14.07;12.65;;;;;;;;;;5068341;28;20177;-57
2020/12/07 01:56:57;;;;;;;13.70;12.40;;;;;;;;;;5069462;28;20614;-56
2020/12/07 01:59:22;;;;;;;12.10;11.00;;;;;;;;;;5072013;28;20208;-57
2020/12/07 02:01:47;;;;;;;14.73;13.23;;;;;;;;;;5070952;28;20184;-57
2020/12/07 02:04:13;;;;;;;13.38;12.07;;;;;;;;;;5071122;28;20176;-56
2020/12/07 02:06:39;;;;;;;13.50;12.30;;;;;;;;;;5067483;28;20307;-56
2020/12/07 02:09:04;;;;;;;13.45;12.15;;;;;;;;;;5072146;28;20681;-57
2020/12/07 02:11:29;;;;;;;12.80;11.50;;;;;;;;;;5069754;28;20186;-56
2020/12/07 02:13:54;;;;;;;12.02;10.82;;;;;;;;;;5071103;28;20580;-56
2020/12/07 02:16:19;;;;;;;12.50;11.30;;;;;;;;;;5067527;28;20255;-57
2020/12/07 02:18:44;;;;;;;14.25;11.70;;;;;;;;;;5069448;28;20196;-57
2020/12/07 02:21:09;;;;;;;13.03;11.77;;;;;;;;;;5070244;28;20246;-56
2020/12/07 02:23:35;;;;;;;12.23;11.13;;;;;;;;;;5070973;28;20641;-57
2020/12/07 02:26:00;;;;;;;13.40;12.20;;;;;;;;;;5067283;28;20181;-59
2020/12/07 02:28:25;;;;;;;13.48;12.18;;;;;;;;;;5071154;28;20245;-57
2020/12/07 02:30:50;;;;;;;11.45;10.35;;;;;;;;;;5073515;28;20170;-56
2020/12/07 02:33:15;;;;;;;13.20;12.00;;;;;;;;;;5068528;28;20177;-56
2020/12/07 02:35:40;;;;;;;12.25;10.95;;;;;;;;;;5069003;28;20176;-56
2020/12/07 02:38:05;;;;;;;12.88;11.60;;;;;;;;;;5068582;28;20167;-56
2020/12/07 02:40:31;;;;;;;13.85;12.45;;;;;;;;;;5077227;28;20665;-56
2020/12/07 02:42:56;;;;;;;12.93;11.73;;;;;;;;;;5070428;28;20254;-56
2020/12/07 02:45:21;;;;;;;13.87;12.47;;;;;;;;;;5068678;28;20264;-57
2020/12/07 02:47:46;;;;;;;13.00;11.77;;;;;;;;;;5068533;28;20582;-57
2020/12/07 02:50:12;;;;;;;12.47;11.27;;;;;;;;;;5068780;28;20191;-57
2020/12/07 02:52:37;;;;;;;13.17;11.90;;;;;;;;;;5070571;28;20185;-57
2020/12/07 02:55:04;;;;;;;12.83;11.43;;;;;;;;;;5070680;28;20181;-57
2020/12/07 02:57:29;;;;;;;12.73;11.43;;;;;;;;;;5064779;28;20208;-56
2020/12/07 02:59:54;;;;;;;13.70;12.37;;;;;;;;;;5070573;28;20634;-57
2020/12/07 03:02:19;;;;;;;13.23;11.93;;;;;;;;;;5073591;28;20558;-57
2020/12/07 03:04:44;;;;;;;13.23;12.03;;;;;;;;;;5070702;28;20307;-57
2020/12/07 03:07:10;;;;;;;12.90;11.70;;;;;;;;;;5068228;28;20174;-57
2020/12/07 03:09:35;;;;;;;13.33;12.03;;;;;;;;;;5069357;28;20172;-56
2020/12/07 03:12:00;;;;;;;14.05;12.65;;;;;;;;;;5070431;28;20210;-56
2020/12/07 03:14:26;;;;;;;14.87;12.77;;;;;;;;;;5070114;28;20208;-56
2020/12/07 03:16:51;;;;;;;13.37;12.10;;;;;;;;;;5068011;28;20311;-56
2020/12/07 03:19:16;;;;;;;12.90;11.63;;;;;;;;;;5068866;28;20181;-56
2020/12/07 03:21:42;;;;;;;14.40;13.00;;;;;;;;;;5069814;28;20200;-57
2020/12/07 03:24:07;;;;;;;13.60;12.30;;;;;;;;;;5070044;28;20176;-57
2020/12/07 03:26:33;;;;;;;15.23;13.73;;;;;;;;;;5067406;28;20252;-56
2020/12/07 03:28:58;;;;;;;14.30;12.80;;;;;;;;;;5063645;28;20182;-56
2020/12/07 03:31:23;;;;;;;13.00;11.70;;;;;;;;;;5067773;28;20605;-57
2020/12/07 03:33:48;;;;;;;14.27;12.85;;;;;;;;;;5068781;28;20177;-57
2020/12/07 03:36:13;;;;;;;12.57;11.48;;;;;;;;;;5068502;28;20180;-56
2020/12/07 03:38:38;;;;;;;12.55;11.45;;;;;;;;;;5069125;28;20186;-57
2020/12/07 03:41:03;;;;;;;12.37;11.20;;;;;;;;;;5069843;28;20206;-56
2020/12/07 03:43:29;;;;;;;12.55;11.35;;;;;;;;;;5069431;28;20525;-56
2020/12/07 03:45:54;;;;;;;14.02;12.65;;;;;;;;;;5067552;28;20453;-56
2020/12/07 03:48:19;;;;;;;12.77;11.57;;;;;;;;;;5069664;28;20185;-56
2020/12/07 03:50:44;;;;;;;12.65;11.43;;;;;;;;;;5068884;28;20846;-56
2020/12/07 03:53:09;;;;;;;13.50;12.10;;;;;;;;;;5064253;28;20211;-56
2020/12/07 03:55:34;;;;;;;13.40;12.20;;;;;;;;;;5069281;28;20193;-57
2020/12/07 03:58:00;;;;;;;13.20;12.00;;;;;;;;;;5068241;28;20275;-57
2020/12/07 04:00:25;;;;;;;12.77;11.67;;;;;;;;;;5069288;28;20234;-57
2020/12/07 04:02:50;;;;;;;14.65;13.20;;;;;;;;;;5067095;28;20744;-56
2020/12/07 04:05:21;;;;;;;13.50;12.20;;;;;;;;;;5068356;28;20179;-57
2020/12/07 04:07:47;;;;;;;13.53;12.33;;;;;;;;;;5066212;28;20167;-57
2020/12/07 04:10:13;;;;;;;13.77;12.20;;;;;;;;;;5069551;28;20617;-57
2020/12/07 04:12:38;;;;;;;13.77;12.37;;;;;;;;;;5066034;28;20627;-57
2020/12/07 04:15:03;;;;;;;13.77;12.47;;;;;;;;;;5069848;28;20189;-58
2020/12/07 04:17:28;;;;;;;15.07;13.48;;;;;;;;;;5066940;28;20181;-57
2020/12/07 04:19:53;;;;;;;13.60;12.30;;;;;;;;;;5069242;28;20182;-58
2020/12/07 04:22:19;;;;;;;13.18;12.02;;;;;;;;;;5068580;28;20202;-57
2020/12/07 04:24:44;;;;;;;13.50;12.27;;;;;;;;;;5066826;28;20201;-56
2020/12/07 04:27:09;;;;;;;13.88;12.57;;;;;;;;;;5067570;28;20233;-57
2020/12/07 04:29:34;;;;;;;14.80;13.43;;;;;;;;;;5065977;28;20212;-58
2020/12/07 04:31:59;;;;;;;14.35;12.95;;;;;;;;;;5066009;28;20190;-56
2020/12/07 04:34:24;;;;;;;14.35;12.95;;;;;;;;;;5066460;28;20211;-56
2020/12/07 04:36:53;;;;;;;14.40;13.10;;;;;;;;;;5064702;28;20691;-57
2020/12/07 04:39:18;;;;;;;14.73;13.43;;;;;;;;;;5065603;28;20307;-57
2020/12/07 04:41:43;;;;;;;15.55;14.15;;;;;;;;;;5060953;28;20721;-57
2020/12/07 04:44:09;;;;;;;15.10;13.70;;;;;;;;;;5066978;28;20201;-56
2020/12/07 04:46:34;;;;;;;15.70;14.20;;;;;;;;;;5067738;28;20176;-57
2020/12/07 04:49:00;;;;;;;15.50;14.00;;;;;;;;;;5070366;28;20724;-57
2020/12/07 04:51:25;;;;;;;15.70;14.30;;;;;;;;;;5066741;28;20183;-57
2020/12/07 04:53:50;;;;;;;16.27;14.68;;;;;;;;;;5069434;28;20707;-57
2020/12/07 04:56:15;;;;;;;15.90;14.50;;;;;;;;;;5068699;28;20239;-57
2020/12/07 04:58:42;;;;;;;15.90;14.40;;;;;;;;;;5072765;28;20208;-58
2020/12/07 05:01:07;;;;;;;17.07;15.60;;;;;;;;;;5072226;28;20214;-57
2020/12/07 05:03:32;;;;;;;16.98;15.35;;;;;;;;;;5072221;28;21237;-57
2020/12/07 05:05:59;;;;;;;16.85;15.30;;;;;;;;;;5072689;28;20275;-57
2020/12/07 05:08:25;;;;;;;16.37;14.67;;;;;;;;;;5070873;28;20174;-58
2020/12/07 05:10:50;;;;;;;17.70;16.07;;;;;;;;;;5067741;28;20618;-57
2020/12/07 05:15:56;;;;;;;17.30;15.70;;;;;;;;;;5063098;28;20599;-56
2020/12/07 05:18:21;;;;;;;16.83;15.33;;;;;;;;;;5070516;28;20597;-57
2020/12/07 05:20:47;;;;;;;17.33;15.60;;;;;;;;;;5069926;28;20545;-57
2020/12/07 05:23:16;;;;;;;16.77;15.20;;;;;;;;;;5059708;28;20225;-56
2020/12/07 05:25:42;;;;;;;18.20;16.57;;;;;;;;;;5071626;28;20580;-58
2020/12/07 05:28:09;;;;;;;18.00;16.30;;;;;;;;;;5067224;28;20593;-57
2020/12/07 05:30:40;;;;;;;17.67;16.07;;;;;;;;;;5072172;28;20590;-58
2020/12/07 05:33:05;;;;;;;18.80;17.00;;;;;;;;;;5068145;28;20618;-57
2020/12/07 05:35:30;;;;;;;17.90;16.23;;;;;;;;;;5069286;28;20702;-58
2020/12/07 05:38:02;;;;;;;18.40;16.60;;;;;;;;;;5069846;28;20217;-58
2020/12/07 05:40:27;;;;;;;16.60;15.10;;;;;;;;;;5064847;28;20182;-58
2020/12/07 05:42:52;;;;;;;19.53;17.50;;;;;;;;;;5068658;28;21004;-57
2020/12/07 05:45:17;;;;;;;18.40;16.53;;;;;;;;;;5068644;28;20552;-58
2020/12/07 05:47:43;;;;;;;17.33;15.83;;;;;;;;;;5067507;28;20176;-57
2020/12/07 05:50:10;;;;;;;19.43;17.53;;;;;;;;;;5065085;28;20265;-58
2020/12/07 05:52:48;;;;;;;17.97;16.07;;;;;;;;;;5068332;28;20539;-57
2020/12/07 05:55:17;;;;;;;17.50;15.83;;;;;;;;;;5068029;28;20600;-58
2020/12/07 05:57:46;;;;;;;17.97;16.30;;;;;;;;;;5065778;28;20711;-57
2020/12/07 06:00:11;;;;;;;17.07;15.50;;;;;;;;;;5068275;28;20870;-57
2020/12/07 06:02:37;;;;;;;18.20;16.43;;;;;;;;;;5063561;28;20634;-58
2020/12/07 06:05:02;;;;;;;19.47;17.57;;;;;;;;;;5068472;28;20186;-58
2020/12/07 06:07:30;;;;;;;19.30;17.57;;;;;;;;;;5067175;28;20207;-58
2020/12/07 06:09:57;;;;;;;18.10;16.60;;;;;;;;;;5063703;28;20184;-58
2020/12/07 06:12:28;;;;;;;17.17;15.67;;;;;;;;;;5068071;28;20623;-58
2020/12/07 06:14:53;;;;;;;17.83;16.17;;;;;;;;;;5068541;28;20608;-58
2020/12/07 06:17:23;;;;;;;17.90;16.10;;;;;;;;;;5065820;28;20592;-58
2020/12/07 06:19:52;;;;;;;17.87;16.17;;;;;;;;;;5066218;28;20222;-58
2020/12/07 06:22:19;;;;;;;17.70;16.10;;;;;;;;;;5071619;28;20646;-59
2020/12/07 06:24:44;;;;;;;17.30;15.70;;;;;;;;;;5067984;28;20927;-58
2020/12/07 06:27:11;;;;;;;18.23;16.53;;;;;;;;;;5069323;28;20640;-59
2020/12/07 06:29:36;;;;;;;18.70;16.90;;;;;;;;;;5068258;28;20834;-58
2020/12/07 06:32:01;;;;;;;18.73;16.87;;;;;;;;;;5071118;28;20685;-59
2020/12/07 06:34:40;;;;;;;19.60;17.70;;;;;;;;;;5071175;28;20181;-58
2020/12/07 06:37:06;;;;;;;18.80;17.00;;;;;;;;;;5070324;28;20168;-58
2020/12/07 06:39:40;;;;;;;19.43;17.60;;;;;;;;;;5068683;28;20991;-59
2020/12/07 06:42:08;;;;;;;19.70;17.80;;;;;;;;;;5071026;28;20746;-59
2020/12/07 06:44:33;;;;;;;19.80;17.90;;;;;;;;;;5071065;28;20656;-58
2020/12/07 06:47:12;;;;;;;18.53;16.73;;;;;;;;;;5068784;28;21152;-59
2020/12/07 06:49:53;;;;;;;20.37;18.50;;;;;;;;;;5070448;28;20188;-59
2020/12/07 06:52:21;;;;;;;20.30;18.40;;;;;;;;;;5065218;28;21123;-58
2020/12/07 06:55:05;;;;;;;19.00;17.30;;;;;;;;;;5070827;28;20627;-58
2020/12/07 06:57:32;;;;;;;20.00;18.10;;;;;;;;;;5062822;28;20633;-59
2020/12/07 06:59:59;;;;;;;20.47;18.43;;;;;;;;;;5069278;28;20611;-58
2020/12/07 07:02:25;;;;;;;21.23;19.03;;;;;;;;;;5065002;28;20649;-58
2020/12/07 07:04:51;;;;;;;21.30;19.20;;;;;;;;;;5066678;28;21175;-58
2020/12/07 07:07:20;;;;;;;21.73;19.53;;;;;;;;;;5066035;28;20208;-58
2020/12/07 07:09:45;;;;;;;22.10;19.93;;;;;;;;;;5068740;28;20595;-58
2020/12/07 07:12:10;;;;;;;21.30;19.30;;;;;;;;;;5068236;28;20598;-58
2020/12/07 07:14:35;;;;;;;20.60;18.60;;;;;;;;;;5070521;28;20194;-60
2020/12/07 07:17:00;;;;;;;21.60;19.40;;;;;;;;;;5069537;28;20281;-59
2020/12/07 07:19:26;;;;;;;20.85;18.85;;;;;;;;;;5070409;28;20181;-59
2020/12/07 07:21:52;;;;;;;20.17;18.07;;;;;;;;;;5069709;28;20195;-57
2020/12/07 07:24:17;;;;;;;20.77;18.57;;;;;;;;;;5070291;28;20906;-58
2020/12/07 07:26:44;;;;;;;20.73;18.73;;;;;;;;;;5070240;28;20769;-57
2020/12/07 07:29:09;;;;;;;21.50;19.30;;;;;;;;;;5066770;28;20180;-56
2020/12/07 07:31:34;;;;;;;22.92;20.77;;;;;;;;;;5069985;28;20938;-59
2020/12/07 07:34:00;;;;;;;21.07;18.97;;;;;;;;;;5068123;28;20271;-58
2020/12/07 07:36:25;;;;;;;21.65;19.65;;;;;;;;;;5070035;28;20183;-58
2020/12/07 07:39:00;;;;;;;19.77;17.77;;;;;;;;;;5067683;28;20198;-58
2020/12/07 07:41:26;;;;;;;22.87;20.47;;;;;;;;;;5069465;28;20202;-59
2020/12/07 07:43:51;;;;;;;20.00;18.10;;;;;;;;;;5064193;28;20595;-59
2020/12/07 07:46:17;;;;;;;20.20;18.20;;;;;;;;;;5069711;28;20178;-55
2020/12/07 07:49:03;;;;;;;20.13;18.23;;;;;;;;;;5067620;28;20169;-55
2020/12/07 07:57:31;;;;;;;21.13;19.03;;;;;;;;;;5064114;28;20617;-58
2020/12/07 08:16:57;;;;;;;22.17;19.87;;;;;;;;;;5059358;28;20707;-58
2020/12/07 08:19:28;;;;;;;22.43;20.27;;;;;;;;;;5066051;28;21246;-57
2020/12/07 08:21:53;;;;;;;21.07;18.97;;;;;;;;;;5068600;28;20683;-58
2020/12/07 08:24:18;;;;;;;21.23;19.23;;;;;;;;;;5069454;28;21191;-57
2020/12/07 08:26:43;;;;;;;19.90;17.92;;;;;;;;;;5069508;28;20169;-57
2020/12/07 08:29:09;;;;;;;21.30;19.33;;;;;;;;;;5067723;28;20192;-58
2020/12/07 08:31:35;;;;;;;21.20;19.20;;;;;;;;;;5068785;28;20170;-58
2020/12/07 08:34:07;;;;;;;21.43;19.33;;;;;;;;;;5069434;28;20190;-58
2020/12/07 08:36:33;;;;;;;21.20;19.40;;;;;;;;;;5069304;28;21148;-58
2020/12/07 08:38:59;;;;;;;22.57;20.17;;;;;;;;;;5067089;28;20609;-58
2020/12/07 08:41:25;;;;;;;21.03;18.90;;;;;;;;;;5068377;28;20203;-58
2020/12/07 08:43:54;;;;;;;22.10;19.80;;;;;;;;;;5069477;28;20259;-57
2020/12/07 08:46:22;;;;;;;24.43;22.00;;;;;;;;;;5069209;28;21175;-57
2020/12/07 08:48:47;;;;;;;20.33;18.23;;;;;;;;;;5067291;28;20591;-57
2020/12/07 08:51:12;;;;;;;22.77;20.50;;;;;;;;;;5068590;28;20608;-57
2020/12/07 08:53:38;;;;;;;21.70;19.47;;;;;;;;;;5068975;28;20400;-57
2020/12/07 08:56:04;;;;;;;22.63;20.40;;;;;;;;;;5069287;28;20648;-57
2020/12/07 08:58:30;;;;;;;21.90;19.80;;;;;;;;;;5066859;28;20201;-57
2020/12/07 09:00:55;;;;;;;22.27;19.97;;;;;;;;;;5068162;28;21079;-57
2020/12/07 09:03:20;;;;;;;21.88;19.70;;;;;;;;;;5069251;28;20215;-57
2020/12/07 09:05:45;;;;;;;22.13;20.00;;;;;;;;;;5068969;28;20233;-58
2020/12/07 09:08:10;;;;;;;22.67;20.50;;;;;;;;;;5067320;28;20179;-58
2020/12/07 09:10:36;;;;;;;21.83;19.83;;;;;;;;;;5069137;28;20227;-57
2020/12/07 09:13:01;;;;;;;21.17;19.07;;;;;;;;;;5065630;28;20188;-58
2020/12/07 09:15:27;;;;;;;21.80;19.60;;;;;;;;;;5068919;28;20331;-57
2020/12/07 09:17:52;;;;;;;21.27;19.43;;;;;;;;;;5066780;28;20189;-58
2020/12/07 09:20:17;;;;;;;21.77;19.60;;;;;;;;;;5069077;28;20241;-58
2020/12/07 09:22:42;;;;;;;22.50;20.40;;;;;;;;;;5074517;28;20256;-57
2020/12/07 09:25:07;;;;;;;20.75;18.88;;;;;;;;;;5068926;28;20166;-57
2020/12/07 09:27:32;;;;;;;20.23;18.43;;;;;;;;;;5068529;28;20259;-57
2020/12/07 09:29:57;;;;;;;21.77;19.58;;;;;;;;;;5066723;28;20171;-58
2020/12/07 09:32:23;;;;;;;21.20;19.23;;;;;;;;;;5070413;28;20201;-58
2020/12/07 09:34:48;;;;;;;21.38;19.13;;;;;;;;;;5070453;28;20222;-57
2020/12/07 09:37:13;;;;;;;21.23;19.23;;;;;;;;;;5072448;28;20706;-58
2020/12/07 09:39:38;;;;;;;20.23;18.33;;;;;;;;;;5070137;28;20182;-58
2020/12/07 09:42:03;;;;;;;19.98;18.08;;;;;;;;;;5072105;28;20244;-57
2020/12/07 09:44:28;;;;;;;20.80;18.65;;;;;;;;;;5071809;28;20607;-58
2020/12/07 09:46:54;;;;;;;21.35;19.15;;;;;;;;;;5071881;28;20172;-58
2020/12/07 09:49:19;;;;;;;22.80;20.50;;;;;;;;;;5070266;28;20173;-58
2020/12/07 09:51:45;;;;;;;19.93;18.13;;;;;;;;;;5072080;28;20556;-58
2020/12/07 09:54:10;;;;;;;21.27;19.27;;;;;;;;;;5069332;28;20178;-57
2020/12/07 09:56:35;;;;;;;23.48;21.20;;;;;;;;;;5072205;28;20181;-58
2020/12/07 09:59:00;;;;;;;21.67;19.73;;;;;;;;;;5069589;28;20271;-57
2020/12/07 10:01:25;;;;;;;22.00;20.00;;;;;;;;;;5072097;28;20206;-58
2020/12/07 10:03:50;;;;;;;21.80;19.80;;;;;;;;;;5070960;28;20178;-57
2020/12/07 10:06:15;;;;;;;22.70;20.40;;;;;;;;;;5071861;28;20685;-57
2020/12/07 10:08:41;;;;;;;23.67;21.48;;;;;;;;;;5069681;28;20536;-57
2020/12/07 10:11:06;;;;;;;23.23;21.03;;;;;;;;;;5071569;28;20636;-58
2020/12/07 10:13:31;;;;;;;24.13;21.83;;;;;;;;;;5071092;28;20170;-57
2020/12/07 10:15:56;;;;;;;23.35;21.20;;;;;;;;;;5062439;28;20221;-58
2020/12/07 10:18:22;;;;;;;23.77;21.73;;;;;;;;;;5069131;28;20177;-58
2020/12/07 10:20:47;;;;;;;23.65;21.55;;;;;;;;;;5071617;28;20199;-58
2020/12/07 10:23:12;;;;;;;24.48;22.17;;;;;;;;;;5071104;28;20286;-58
2020/12/07 10:25:38;;;;;;;25.20;22.80;;;;;;;;;;5070631;28;20299;-58
2020/12/07 10:28:03;;;;;;;22.93;20.83;;;;;;;;;;5069439;28;20280;-57
2020/12/07 10:30:28;;;;;;;24.02;21.63;;;;;;;;;;5071362;28;20251;-58
2020/12/07 10:32:53;;;;;;;24.27;21.98;;;;;;;;;;5071246;28;20184;-58
2020/12/07 10:35:18;;;;;;;23.03;20.83;;;;;;;;;;5071023;28;20178;-59
2020/12/07 10:37:45;;;;;;;23.83;21.63;;;;;;;;;;5064793;28;20168;-59
2020/12/07 10:40:10;;;;;;;24.03;21.63;;;;;;;;;;5069373;28;20666;-58
2020/12/07 10:42:36;;;;;;;24.38;21.88;;;;;;;;;;5070356;28;20648;-58
2020/12/07 10:45:01;;;;;;;22.57;20.37;;;;;;;;;;5071093;28;20516;-58
2020/12/07 10:47:26;;;;;;;23.48;21.27;;;;;;;;;;5068222;28;20185;-58
2020/12/07 10:49:51;;;;;;;24.08;21.80;;;;;;;;;;5067438;28;20162;-58
2020/12/07 10:52:16;;;;;;;23.20;21.10;;;;;;;;;;5071030;28;20195;-58
2020/12/07 10:54:41;;;;;;;20.10;18.20;;;;;;;;;;5070401;28;20189;-58
2020/12/07 10:57:06;;;;;;;22.77;20.70;;;;;;;;;;5074102;28;20198;-58
2020/12/07 10:59:32;;;;;;;22.80;20.80;;;;;;;;;;5071802;28;20586;-58
2020/12/07 11:01:58;;;;;;;22.37;20.27;;;;;;;;;;5070247;28;20203;-58
2020/12/07 11:04:23;;;;;;;20.43;18.43;;;;;;;;;;5070716;28;20202;-58
2020/12/07 11:06:50;;;;;;;19.75;17.98;;;;;;;;;;5070439;28;20182;-58
2020/12/07 11:09:23;;;;;;;19.20;17.40;;;;;;;;;;5063844;28;20183;-57
2020/12/07 11:11:48;;;;;;;16.60;14.97;;;;;;;;;;5070423;28;21068;-58
2020/12/07 11:14:13;;;;;;;16.10;14.70;;;;;;;;;;5070631;28;20701;-58
2020/12/07 11:16:38;;;;;;;15.85;14.32;;;;;;;;;;5070167;28;20220;-59
2020/12/07 11:19:03;;;;;;;14.90;13.50;;;;;;;;;;5066327;28;20235;-58
2020/12/07 11:21:28;;;;;;;14.73;13.45;;;;;;;;;;5070523;28;20206;-58
2020/12/07 11:23:54;;;;;;;13.70;12.30;;;;;;;;;;5070033;28;20861;-58
2020/12/07 11:26:19;;;;;;;13.40;12.20;;;;;;;;;;5069905;28;20184;-58
2020/12/07 11:28:44;;;;;;;13.50;12.20;;;;;;;;;;5065789;28;20168;-58
2020/12/07 11:31:10;;;;;;;11.70;10.60;;;;;;;;;;5061817;28;20192;-58
2020/12/07 11:33:36;;;;;;;10.67;9.67;;;;;;;;;;5069935;28;20176;-58
2020/12/07 11:36:01;;;;;;;10.73;9.73;;;;;;;;;;5070076;28;20608;-59
2020/12/07 11:38:30;;;;;;;10.70;9.23;;;;;;;;;;5068128;28;20189;-58
2020/12/07 11:43:40;;;;;;;9.97;9.17;;;;;;;;;;5069702;28;20785;-58
2020/12/07 11:46:05;;;;;;;8.23;7.53;;;;;;;;;;5069940;28;21167;-58
2020/12/07 11:48:30;;;;;;;9.63;8.82;;;;;;;;;;5068825;28;21242;-59
2020/12/07 11:50:55;;;;;;;9.47;8.67;;;;;;;;;;5066937;28;20189;-58
2020/12/07 11:53:20;;;;;;;9.10;8.30;;;;;;;;;;5069326;28;20188;-58
2020/12/07 11:55:45;;;;;;;8.35;7.63;;;;;;;;;;5069532;28;20653;-58
2020/12/07 11:58:11;;;;;;;8.07;7.33;;;;;;;;;;5069844;28;20255;-58
2020/12/07 12:00:36;;;;;;;7.53;6.83;;;;;;;;;;5063868;28;20710;-59
2020/12/07 12:03:02;;;;;;;8.63;7.13;;;;;;;;;;5069722;28;20233;-58
2020/12/07 12:05:27;;;;;;;7.67;6.97;;;;;;;;;;5069675;28;20175;-58
2020/12/07 12:07:52;;;;;;;7.30;6.70;;;;;;;;;;5069749;28;20210;-58
2020/12/07 12:10:17;;;;;;;8.30;6.82;;;;;;;;;;5067891;28;20244;-58
2020/12/07 12:12:42;;;;;;;8.13;7.32;;;;;;;;;;5068738;28;20568;-58
2020/12/07 12:15:07;;;;;;;7.78;6.80;;;;;;;;;;5069346;28;20178;-58
2020/12/07 12:17:33;;;;;;;6.93;6.33;;;;;;;;;;5069511;28;20231;-58
2020/12/07 12:19:58;;;;;;;7.88;6.80;;;;;;;;;;5063878;28;20209;-58
2020/12/07 12:22:23;;;;;;;6.80;5.70;;;;;;;;;;5069704;28;20205;-59
2020/12/07 12:24:48;;;;;;;8.32;6.68;;;;;;;;;;5069363;28;20177;-58
2020/12/07 12:27:13;;;;;;;6.87;6.20;;;;;;;;;;5068877;28;20216;-59
2020/12/07 12:29:38;;;;;;;7.20;6.60;;;;;;;;;;5067495;28;20173;-57
2020/12/07 12:32:04;;;;;;;7.13;6.53;;;;;;;;;;5069414;28;20656;-59
2020/12/07 12:34:29;;;;;;;7.67;6.97;;;;;;;;;;5069547;28;20197;-58
2020/12/07 12:36:54;;;;;;;7.40;6.57;;;;;;;;;;5067390;28;20196;-58
2020/12/07 12:39:21;;;;;;;6.80;6.30;;;;;;;;;;5067677;28;20206;-58
2020/12/07 12:41:46;;;;;;;7.33;6.70;;;;;;;;;;5069153;28;20208;-58
2020/12/07 12:44:11;;;;;;;6.93;6.23;;;;;;;;;;5069339;28;20652;-58
2020/12/07 12:46:39;;;;;;;7.43;6.73;;;;;;;;;;5063503;28;20177;-58
2020/12/07 12:49:04;;;;;;;8.27;6.80;;;;;;;;;;5066922;28;20614;-57
2020/12/07 12:51:30;;;;;;;9.27;7.30;;;;;;;;;;5067428;28;20646;-58
2020/12/07 12:53:55;;;;;;;6.90;6.30;;;;;;;;;;5069106;28;20222;-58
2020/12/07 12:56:22;;;;;;;8.60;7.47;;;;;;;;;;5068966;28;20165;-58
2020/12/07 12:58:47;;;;;;;7.23;6.60;;;;;;;;;;5066932;28;20204;-59
2020/12/07 13:01:13;;;;;;;7.70;6.90;;;;;;;;;;5067318;28;20617;-58
2020/12/07 13:03:38;;;;;;;17.57;8.00;;;;;;;;;;5069255;28;20177;-58
2020/12/07 13:06:03;;;;;;;8.07;7.37;;;;;;;;;;5071244;28;20231;-58
2020/12/07 13:08:29;;;;;;;8.43;7.63;;;;;;;;;;5066976;28;20183;-58
2020/12/07 13:10:54;;;;;;;8.43;7.63;;;;;;;;;;5063110;28;20181;-58
2020/12/07 13:13:19;;;;;;;8.50;7.70;;;;;;;;;;5072893;28;20262;-59
2020/12/07 13:18:19;;;;;;;10.47;9.40;;;;;;;;;;5062803;28;20188;-58
2020/12/07 13:28:30;;;;;;;11.10;10.00;;;;;;;;;;5069050;28;20607;-59
2020/12/07 13:30:55;;;;;;;12.73;10.23;;;;;;;;;;5066841;28;20607;-59
2020/12/07 13:33:20;;;;;;;11.10;10.00;;;;;;;;;;5072473;28;20165;-58
2020/12/07 13:35:46;;;;;;;10.93;9.83;;;;;;;;;;5072879;28;20187;-58
2020/12/07 13:38:11;;;;;;;11.87;10.70;;;;;;;;;;5071869;28;20552;-58
2020/12/07 13:40:36;;;;;;;11.03;9.90;;;;;;;;;;5064276;28;20178;-58
2020/12/07 13:43:02;;;;;;;11.47;10.27;;;;;;;;;;5072050;28;20215;-58
2020/12/07 13:45:28;;;;;;;12.50;11.20;;;;;;;;;;5072496;28;20179;-58
2020/12/07 13:47:53;;;;;;;10.90;9.90;;;;;;;;;;5072207;28;20207;-58
2020/12/07 13:50:19;;;;;;;10.45;9.20;;;;;;;;;;5075339;28;21241;-59
2020/12/07 13:52:44;;;;;;;11.23;10.03;;;;;;;;;;5066694;28;20174;-58
2020/12/07 13:55:09;;;;;;;9.67;8.67;;;;;;;;;;5071897;28;20179;-58
2020/12/07 13:57:34;;;;;;;9.60;8.70;;;;;;;;;;5072259;28;20195;-58
2020/12/07 13:59:59;;;;;;;10.10;9.20;;;;;;;;;;5066660;28;20170;-58
2020/12/07 14:02:25;;;;;;;8.55;7.75;;;;;;;;;;5071410;28;20305;-59
2020/12/07 14:05:04;;;;;;;10.60;8.80;;;;;;;;;;5071970;28;20699;-58
2020/12/07 14:07:30;;;;;;;10.77;8.57;;;;;;;;;;5071969;28;20176;-58
2020/12/07 14:09:55;;;;;;;8.60;7.80;;;;;;;;;;5069775;28;21252;-59
2020/12/07 14:12:21;;;;;;;8.87;7.97;;;;;;;;;;5065103;28;20241;-58
2020/12/07 14:14:46;;;;;;;9.50;8.50;;;;;;;;;;5071842;28;20173;-58
2020/12/07 14:17:14;;;;;;;8.40;7.43;;;;;;;;;;5070365;28;20257;-58
2020/12/07 14:22:42;;;;;;;8.37;7.67;;;;;;;;;;5069348;28;21026;-59
2020/12/07 14:27:53;;;;;;;9.32;8.50;;;;;;;;;;5071471;28;21324;-58
2020/12/07 14:41:02;;;;;;;10.03;9.03;;;;;;;;;;5069223;28;20697;-58
2020/12/07 14:43:27;;;;;;;12.53;9.37;;;;;;;;;;5069157;28;20644;-58
2020/12/07 14:46:10;;;;;;;10.63;9.50;;;;;;;;;;5070132;28;20594;-58
2020/12/07 14:48:37;;;;;;;9.93;8.93;;;;;;;;;;5069662;28;20654;-59
2020/12/07 14:51:17;;;;;;;10.13;9.13;;;;;;;;;;5066639;28;21003;-58
2020/12/07 14:53:43;;;;;;;11.47;10.27;;;;;;;;;;5066440;28;20600;-58
2020/12/07 14:56:14;;;;;;;11.70;10.40;;;;;;;;;;5069508;28;20595;-58
2020/12/07 15:01:54;;;;;;;11.07;10.03;;;;;;;;;;5065085;28;21238;-57
2020/12/07 15:07:31;;;;;;;12.47;10.73;;;;;;;;;;5065487;28;20653;-58
2020/12/07 15:15:25;;;;;;;11.07;9.97;;;;;;;;;;5033542;28;20751;-58
2020/12/07 15:17:50;;;;;;;11.35;10.13;;;;;;;;;;5054732;28;20626;-58
2020/12/07 15:20:15;;;;;;;13.77;11.77;;;;;;;;;;5063386;28;20210;-58